Time;durP1;ratioP1;P1;durP2;ratioP2;P2;SDS_P1;SDS_P2;PMS_P1;PMS_P2;Temp;Humidity;BMP_temperature;BMP_pressure;BME280_temperature;BME280_humidity;BME280_pressure;Samples;Min_cycle;Max_cycle;Signal;HPM_P1;HPM_P2
2023/03/18 00:01:13;;;;;;;;;;;;;;;;;;6204340;23;19977;-88
2023/03/18 00:03:39;;;;;;;;;;;;;;;;;;6171719;23;19920;-87
2023/03/18 00:06:05;;;;;;;;;;;;;;;;;;6199431;23;20016;-87
2023/03/18 00:08:31;;;;;;;;;;;;;;;;;;6200309;23;19951;-87
2023/03/18 00:10:58;;;;;;;;;;;;;;;;;;6174737;23;20362;-88
2023/03/18 00:13:24;;;;;;;;;;;;;;;;;;6199510;23;20399;-88
2023/03/18 00:15:50;;;;;;;;;;;;;;;;;;6196974;23;19999;-88
2023/03/18 00:18:16;;;;;;;;;;;;;;;;;;6173519;23;19966;-88
2023/03/18 00:20:44;;;;;;;;;;;;;;;;;;6170740;23;20346;-87
2023/03/18 00:23:10;;;;;;;;;;;;;;;;;;6174438;23;19951;-87
2023/03/18 00:25:39;;;;;;;;;;;;;;;;;;6176028;23;19920;-88
2023/03/18 00:28:05;;;;;;;;;;;;;;;;;;6170124;23;19927;-87
2023/03/18 00:30:31;;;;;;;;;;;;;;;;;;6198466;23;19928;-88
2023/03/18 00:32:57;;;;;;;;;;;;;;;;;;6172642;23;20066;-88
2023/03/18 00:35:26;;;;;;;;;;;;;;;;;;6200726;23;19920;-88
2023/03/18 00:37:53;;;;;;;;;;;;;;;;;;6197032;23;20642;-89
2023/03/18 00:40:20;;;;;;;;;;;;;;;;;;6197797;23;19920;-88
2023/03/18 00:42:46;;;;;;;;;;;;;;;;;;6194271;23;19995;-88
2023/03/18 00:45:12;;;;;;;;;;;;;;;;;;6173757;23;19926;-88
2023/03/18 00:47:38;;;;;;;;;;;;;;;;;;6175750;23;19920;-88
2023/03/18 00:50:05;;;;;;;;;;;;;;;;;;6177177;23;20333;-88
2023/03/18 00:52:31;;;;;;;;;;;;;;;;;;6179132;23;20309;-87
2023/03/18 00:54:57;;;;;;;;;;;;;;;;;;6199061;23;20492;-87
2023/03/18 00:57:23;;;;;;;;;;;;;;;;;;6179062;23;19920;-88
2023/03/18 00:59:50;;;;;;;;;;;;;;;;;;6176931;23;19916;-88
2023/03/18 01:02:16;;;;;;;;;;;;;;;;;;6180352;23;20346;-88
2023/03/18 01:04:42;;;;;;;;;;;;;;;;;;6202627;23;19927;-88
2023/03/18 01:07:09;;;;;;;;;;;;;;;;;;6202610;23;19926;-88
2023/03/18 01:09:35;;;;;;;;;;;;;;;;;;6203283;23;19927;-87
2023/03/18 01:12:02;;;;;;;;;;;;;;;;;;6200436;23;19943;-88
2023/03/18 01:14:28;;;;;;;;;;;;;;;;;;6205440;23;20341;-88
2023/03/18 01:16:54;;;;;;;;;;;;;;;;;;6199950;23;19919;-88
2023/03/18 01:19:20;;;;;;;;;;;;;;;;;;6178487;23;19969;-88
2023/03/18 01:21:47;;;;;;;;;;;;;;;;;;6200526;23;20362;-89
2023/03/18 01:24:12;;;;;;;;;;;;;;;;;;6203172;23;19919;-88
2023/03/18 01:26:39;;;;;;;;;;;;;;;;;;6200831;23;20179;-88
2023/03/18 01:29:05;;;;;;;;;;;;;;;;;;6201506;23;20244;-88
2023/03/18 01:31:30;;;;;;;;;;;;;;;;;;6201924;23;19991;-88
2023/03/18 01:33:56;;;;;;;;;;;;;;;;;;6200471;23;20345;-87
2023/03/18 01:36:23;;;;;;;;;;;;;;;;;;6203399;23;19916;-88
2023/03/18 01:38:50;;;;;;;;;;;;;;;;;;6174884;23;19942;-88
2023/03/18 01:41:16;;;;;;;;;;;;;;;;;;6202192;23;19962;-88
2023/03/18 01:43:42;;;;;;;;;;;;;;;;;;6200598;23;19920;-88
2023/03/18 01:46:08;;;;;;;;;;;;;;;;;;6177035;23;19986;-88
2023/03/18 01:48:34;;;;;;;;;;;;;;;;;;6200984;23;19977;-87
2023/03/18 01:51:00;;;;;;;;;;;;;;;;;;6174843;23;19920;-87
2023/03/18 01:53:26;;;;;;;;;;;;;;;;;;6204919;23;20300;-88
2023/03/18 01:55:52;;;;;;;;;;;;;;;;;;6176635;23;19920;-88
2023/03/18 01:58:18;;;;;;;;;;;;;;;;;;6204445;23;20404;-88
2023/03/18 02:00:44;;;;;;;;;;;;;;;;;;6177073;23;20317;-88
2023/03/18 02:03:10;;;;;;;;;;;;;;;;;;6203310;23;19924;-88
2023/03/18 02:05:37;;;;;;;;;;;;;;;;;;6204239;23;19920;-88
2023/03/18 02:08:03;;;;;;;;;;;;;;;;;;6178432;23;19916;-88
2023/03/18 02:10:29;;;;;;;;;;;;;;;;;;6176851;23;20222;-87
2023/03/18 02:12:56;;;;;;;;;;;;;;;;;;6200554;23;20015;-87
2023/03/18 02:15:22;;;;;;;;;;;;;;;;;;6178590;23;20321;-88
2023/03/18 02:17:48;;;;;;;;;;;;;;;;;;6175803;23;19966;-87
2023/03/18 02:20:14;;;;;;;;;;;;;;;;;;6175792;23;20345;-87
2023/03/18 02:22:42;;;;;;;;;;;;;;;;;;6201263;23;20256;-88
2023/03/18 02:25:08;;;;;;;;;;;;;;;;;;6177757;23;19919;-88
2023/03/18 02:27:34;;;;;;;;;;;;;;;;;;6177760;23;19920;-88
2023/03/18 02:30:00;;;;;;;;;;;;;;;;;;6175391;23;19920;-88
2023/03/18 02:32:26;;;;;;;;;;;;;;;;;;6176392;23;19935;-88
2023/03/18 02:34:52;;;;;;;;;;;;;;;;;;6200564;23;19979;-87
2023/03/18 02:37:18;;;;;;;;;;;;;;;;;;6176176;23;19939;-88
2023/03/18 02:39:44;;;;;;;;;;;;;;;;;;6174175;23;19920;-88
2023/03/18 02:42:10;;;;;;;;;;;;;;;;;;6202558;23;19938;-88
2023/03/18 02:44:37;;;;;;;;;;;;;;;;;;6201766;23;19958;-88
2023/03/18 02:47:03;;;;;;;;;;;;;;;;;;6203412;23;19939;-88
2023/03/18 02:49:28;;;;;;;;;;;;;;;;;;6200847;23;19942;-88
2023/03/18 02:51:55;;;;;;;;;;;;;;;;;;6200304;23;19920;-88
2023/03/18 02:54:21;;;;;;;;;;;;;;;;;;6204476;23;19920;-89
2023/03/18 02:56:46;;;;;;;;;;;;;;;;;;6173254;23;19974;-87
2023/03/18 02:59:13;;;;;;;;;;;;;;;;;;6203136;23;19927;-88
2023/03/18 03:01:39;;;;;;;;;;;;;;;;;;6176846;23;19927;-88
2023/03/18 03:04:05;;;;;;;;;;;;;;;;;;6186802;23;19965;-88
2023/03/18 03:06:31;;;;;;;;;;;;;;;;;;6185210;23;19923;-88
2023/03/18 03:08:59;;;;;;;;;;;;;;;;;;6208455;23;20098;-88
2023/03/18 03:11:25;;;;;;;;;;;;;;;;;;6184877;23;20357;-88
2023/03/18 03:13:52;;;;;;;;;;;;;;;;;;6181085;23;19942;-89
2023/03/18 03:16:18;;;;;;;;;;;;;;;;;;6207451;23;20005;-87
2023/03/18 03:18:44;;;;;;;;;;;;;;;;;;6182943;23;19915;-88
2023/03/18 03:21:10;;;;;;;;;;;;;;;;;;6210851;23;19922;-89
2023/03/18 03:23:39;;;;;;;;;;;;;;;;;;6210848;23;19919;-88
2023/03/18 03:26:05;;;;;;;;;;;;;;;;;;6209097;23;19916;-88
2023/03/18 03:28:31;;;;;;;;;;;;;;;;;;6183566;23;20042;-88
2023/03/18 03:30:57;;;;;;;;;;;;;;;;;;6179696;23;20241;-88
2023/03/18 03:33:23;;;;;;;;;;;;;;;;;;6205064;23;19920;-88
2023/03/18 03:35:49;;;;;;;;;;;;;;;;;;6204980;23;19923;-88
2023/03/18 03:38:15;;;;;;;;;;;;;;;;;;6208555;23;19930;-88
2023/03/18 03:40:41;;;;;;;;;;;;;;;;;;6205614;23;19985;-88
2023/03/18 03:43:07;;;;;;;;;;;;;;;;;;6182702;23;19957;-88
2023/03/18 03:45:33;;;;;;;;;;;;;;;;;;6234594;23;19926;-88
2023/03/18 03:47:59;;;;;;;;;;;;;;;;;;6205601;23;19916;-88
2023/03/18 03:50:25;;;;;;;;;;;;;;;;;;6183014;23;19915;-88
2023/03/18 03:52:52;;;;;;;;;;;;;;;;;;6235469;23;20324;-88
2023/03/18 03:55:18;;;;;;;;;;;;;;;;;;6208642;23;19927;-88
2023/03/18 03:57:44;;;;;;;;;;;;;;;;;;6182967;23;19919;-88
2023/03/18 04:00:13;;;;;;;;;;;;;;;;;;6184822;23;20237;-88
2023/03/18 04:02:39;;;;;;;;;;;;;;;;;;6236257;23;20434;-88
2023/03/18 04:05:05;;;;;;;;;;;;;;;;;;6235216;23;20454;-88
2023/03/18 04:07:31;;;;;;;;;;;;;;;;;;6209471;23;19978;-89
2023/03/18 04:09:57;;;;;;;;;;;;;;;;;;6232947;23;20548;-88
2023/03/18 04:12:23;;;;;;;;;;;;;;;;;;6208440;23;19916;-88
2023/03/18 04:14:50;;;;;;;;;;;;;;;;;;6177989;23;19946;-88
2023/03/18 04:17:16;;;;;;;;;;;;;;;;;;6178863;23;19927;-87
2023/03/18 04:19:42;;;;;;;;;;;;;;;;;;6178881;23;19922;-88
2023/03/18 04:22:08;;;;;;;;;;;;;;;;;;6208231;23;19986;-88
2023/03/18 04:24:34;;;;;;;;;;;;;;;;;;6206184;23;19950;-88
2023/03/18 04:27:00;;;;;;;;;;;;;;;;;;6178837;23;20367;-88
2023/03/18 04:29:26;;;;;;;;;;;;;;;;;;6180923;23;19919;-88
2023/03/18 04:31:52;;;;;;;;;;;;;;;;;;6204880;23;19966;-88
2023/03/18 04:34:18;;;;;;;;;;;;;;;;;;6180340;23;20024;-88
2023/03/18 04:36:44;;;;;;;;;;;;;;;;;;6179012;23;19990;-88
2023/03/18 04:39:10;;;;;;;;;;;;;;;;;;6182133;23;19935;-88
2023/03/18 04:41:39;;;;;;;;;;;;;;;;;;6208811;23;20230;-88
2023/03/18 04:44:05;;;;;;;;;;;;;;;;;;6208564;23;19920;-88
2023/03/18 04:46:31;;;;;;;;;;;;;;;;;;6207761;23;19995;-88
2023/03/18 04:48:57;;;;;;;;;;;;;;;;;;6179655;23;20232;-87
2023/03/18 04:51:23;;;;;;;;;;;;;;;;;;6207843;23;19916;-88
2023/03/18 04:53:49;;;;;;;;;;;;;;;;;;6181068;23;19962;-88
2023/03/18 04:56:15;;;;;;;;;;;;;;;;;;6183818;23;19919;-88
2023/03/18 04:58:41;;;;;;;;;;;;;;;;;;6203858;23;20395;-88
2023/03/18 05:01:08;;;;;;;;;;;;;;;;;;6208035;23;20030;-88
2023/03/18 05:03:34;;;;;;;;;;;;;;;;;;6180366;23;20045;-88
2023/03/18 05:06:00;;;;;;;;;;;;;;;;;;6176798;23;19923;-88
2023/03/18 05:08:26;;;;;;;;;;;;;;;;;;6175056;23;19920;-88
2023/03/18 05:10:52;;;;;;;;;;;;;;;;;;6175526;23;19947;-88
2023/03/18 05:13:18;;;;;;;;;;;;;;;;;;6204727;23;19966;-88
2023/03/18 05:15:44;;;;;;;;;;;;;;;;;;6175884;23;19923;-88
2023/03/18 05:18:11;;;;;;;;;;;;;;;;;;6177959;23;19956;-88
2023/03/18 05:20:38;;;;;;;;;;;;;;;;;;6177707;23;19978;-88
2023/03/18 05:23:04;;;;;;;;;;;;;;;;;;6178378;23;19991;-88
2023/03/18 05:25:30;;;;;;;;;;;;;;;;;;6204149;23;19916;-87
2023/03/18 05:27:56;;;;;;;;;;;;;;;;;;6201656;23;20432;-88
2023/03/18 05:30:22;;;;;;;;;;;;;;;;;;6201680;23;20510;-88
2023/03/18 05:32:48;;;;;;;;;;;;;;;;;;6202856;23;19920;-88
2023/03/18 05:35:14;;;;;;;;;;;;;;;;;;6200820;23;20329;-89
2023/03/18 05:37:50;;;;;;;;;;;;;;;;;;6198861;23;19990;-88
2023/03/18 05:40:16;;;;;;;;;;;;;;;;;;6177420;23;20301;-88
2023/03/18 05:42:42;;;;;;;;;;;;;;;;;;6175100;23;19947;-88
2023/03/18 05:45:07;;;;;;;;;;;;;;;;;;6200753;23;19943;-88
2023/03/18 05:47:33;;;;;;;;;;;;;;;;;;6202921;23;19970;-88
2023/03/18 05:50:01;;;;;;;;;;;;;;;;;;6175236;23;20338;-88
2023/03/18 05:52:28;;;;;;;;;;;;;;;;;;6177928;23;19977;-88
2023/03/18 05:54:54;;;;;;;;;;;;;;;;;;6175521;23;20227;-88
2023/03/18 05:57:20;;;;;;;;;;;;;;;;;;6200800;23;19920;-88
2023/03/18 05:59:46;;;;;;;;;;;;;;;;;;6176164;23;19969;-88
2023/03/18 06:02:12;;;;;;;;;;;;;;;;;;6176373;23;19927;-88
2023/03/18 06:04:39;;;;;;;;;;;;;;;;;;6172555;23;20248;-89
2023/03/18 06:07:05;;;;;;;;;;;;;;;;;;6200859;23;19962;-88
2023/03/18 06:09:32;;;;;;;;;;;;;;;;;;6175808;23;19924;-88
2023/03/18 06:11:58;;;;;;;;;;;;;;;;;;6199230;23;19951;-88
2023/03/18 06:14:28;;;;;;;;;;;;;;;;;;6178427;23;19920;-88
2023/03/18 06:16:54;;;;;;;;;;;;;;;;;;6197216;23;19927;-88
2023/03/18 06:19:20;;;;;;;;;;;;;;;;;;6174500;23;20001;-88
2023/03/18 06:21:46;;;;;;;;;;;;;;;;;;6200563;23;19938;-88
2023/03/18 06:24:14;;;;;;;;;;;;;;;;;;6176650;23;20256;-89
2023/03/18 06:26:40;;;;;;;;;;;;;;;;;;6175568;23;19919;-88
2023/03/18 06:29:06;;;;;;;;;;;;;;;;;;6202875;23;19927;-88
2023/03/18 06:31:31;;;;;;;;;;;;;;;;;;6202625;23;19963;-89
2023/03/18 06:33:57;;;;;;;;;;;;;;;;;;6175821;23;19920;-88
2023/03/18 06:36:23;;;;;;;;;;;;;;;;;;6174934;23;19994;-88
2023/03/18 06:38:49;;;;;;;;;;;;;;;;;;6170789;23;19920;-88
2023/03/18 06:41:15;;;;;;;;;;;;;;;;;;6175785;23;19920;-88
2023/03/18 06:43:42;;;;;;;;;;;;;;;;;;6174456;23;19986;-88
2023/03/18 06:46:09;;;;;;;;;;;;;;;;;;6201379;23;19923;-88
2023/03/18 06:48:39;;;;;;;;;;;;;;;;;;6203530;23;19919;-88
2023/03/18 06:51:05;;;;;;;;;;;;;;;;;;6178878;23;20306;-88
2023/03/18 06:53:32;;;;;;;;;;;;;;;;;;6203936;23;19927;-88
2023/03/18 06:55:58;;;;;;;;;;;;;;;;;;6199418;23;19928;-88
2023/03/18 06:58:24;;;;;;;;;;;;;;;;;;6176697;23;19978;-89
2023/03/18 07:00:50;;;;;;;;;;;;;;;;;;6198761;23;19926;-88
2023/03/18 07:03:16;;;;;;;;;;;;;;;;;;6178056;23;20311;-89
2023/03/18 07:05:42;;;;;;;;;;;;;;;;;;6174582;23;19920;-88
2023/03/18 07:08:08;;;;;;;;;;;;;;;;;;6201871;23;20348;-89
2023/03/18 07:10:34;;;;;;;;;;;;;;;;;;6201496;23;19920;-89
2023/03/18 07:13:00;;;;;;;;;;;;;;;;;;6199619;23;19973;-88
2023/03/18 07:15:26;;;;;;;;;;;;;;;;;;6175516;23;19950;-89
2023/03/18 07:17:52;;;;;;;;;;;;;;;;;;6173182;23;19916;-89
2023/03/18 07:20:18;;;;;;;;;;;;;;;;;;6174615;23;20329;-88
2023/03/18 07:22:45;;;;;;;;;;;;;;;;;;6171539;23;19920;-89
2023/03/18 07:25:12;;;;;;;;;;;;;;;;;;6197862;23;19959;-88
2023/03/18 07:27:38;;;;;;;;;;;;;;;;;;6171340;23;20333;-90
2023/03/18 07:30:05;;;;;;;;;;;;;;;;;;6177253;23;19926;-88
2023/03/18 07:32:31;;;;;;;;;;;;;;;;;;6204926;23;19920;-88
2023/03/18 07:34:58;;;;;;;;;;;;;;;;;;6173718;23;20349;-88
2023/03/18 07:37:24;;;;;;;;;;;;;;;;;;6202569;23;19916;-88
2023/03/18 07:39:51;;;;;;;;;;;;;;;;;;6175085;23;20398;-88
2023/03/18 07:42:18;;;;;;;;;;;;;;;;;;6177039;23;19924;-88
2023/03/18 07:44:44;;;;;;;;;;;;;;;;;;6173445;23;19923;-88
2023/03/18 07:47:10;;;;;;;;;;;;;;;;;;6203186;23;19916;-88
2023/03/18 07:49:35;;;;;;;;;;;;;;;;;;6203924;23;20342;-89
2023/03/18 07:52:02;;;;;;;;;;;;;;;;;;6204770;23;19926;-88
2023/03/18 07:54:28;;;;;;;;;;;;;;;;;;6208245;23;19919;-88
2023/03/18 07:56:54;;;;;;;;;;;;;;;;;;6204488;23;19970;-88
2023/03/18 07:59:20;;;;;;;;;;;;;;;;;;6208000;23;19958;-89
2023/03/18 08:01:47;;;;;;;;;;;;;;;;;;6203495;23;19974;-88
2023/03/18 08:04:13;;;;;;;;;;;;;;;;;;6205728;23;19991;-88
2023/03/18 08:06:40;;;;;;;;;;;;;;;;;;6201115;23;19931;-88
2023/03/18 08:09:06;;;;;;;;;;;;;;;;;;6179569;23;19919;-88
2023/03/18 08:11:32;;;;;;;;;;;;;;;;;;6177160;23;19995;-88
2023/03/18 08:13:58;;;;;;;;;;;;;;;;;;6177098;23;19919;-87
2023/03/18 08:16:24;;;;;;;;;;;;;;;;;;6205058;23;19926;-87
2023/03/18 08:18:50;;;;;;;;;;;;;;;;;;6175444;23;19916;-88
2023/03/18 08:21:16;;;;;;;;;;;;;;;;;;6203094;23;19920;-88
2023/03/18 08:23:42;;;;;;;;;;;;;;;;;;6203426;23;19919;-88
2023/03/18 08:26:08;;;;;;;;;;;;;;;;;;6179781;23;20283;-88
2023/03/18 08:28:34;;;;;;;;;;;;;;;;;;6176833;23;19924;-88
2023/03/18 08:31:00;;;;;;;;;;;;;;;;;;6201786;23;20348;-88
2023/03/18 08:33:26;;;;;;;;;;;;;;;;;;6206447;23;20259;-88
2023/03/18 08:35:52;;;;;;;;;;;;;;;;;;6201717;23;19931;-88
2023/03/18 08:38:18;;;;;;;;;;;;;;;;;;6203441;23;19919;-88
2023/03/18 08:40:45;;;;;;;;;;;;;;;;;;6176334;23;19920;-88
2023/03/18 08:43:11;;;;;;;;;;;;;;;;;;6205247;23;19924;-88
2023/03/18 08:45:37;;;;;;;;;;;;;;;;;;6174958;23;20399;-88
2023/03/18 08:48:03;;;;;;;;;;;;;;;;;;6180178;23;20022;-88
2023/03/18 08:50:29;;;;;;;;;;;;;;;;;;6178603;23;20017;-87
2023/03/18 08:52:56;;;;;;;;;;;;;;;;;;6175712;23;20244;-88
2023/03/18 08:55:22;;;;;;;;;;;;;;;;;;6178789;23;20007;-87
2023/03/18 08:57:49;;;;;;;;;;;;;;;;;;6202374;23;19923;-88
2023/03/18 09:00:15;;;;;;;;;;;;;;;;;;6203022;23;19920;-88
2023/03/18 09:02:41;;;;;;;;;;;;;;;;;;6175984;23;20252;-87
2023/03/18 09:05:07;;;;;;;;;;;;;;;;;;6180113;23;19928;-88
2023/03/18 09:07:33;;;;;;;;;;;;;;;;;;6180542;23;19930;-88
2023/03/18 09:09:59;;;;;;;;;;;;;;;;;;6202961;23;19927;-88
2023/03/18 09:12:25;;;;;;;;;;;;;;;;;;6178545;23;20003;-88
2023/03/18 09:14:51;;;;;;;;;;;;;;;;;;6199250;23;19920;-88
2023/03/18 09:17:17;;;;;;;;;;;;;;;;;;6202538;23;20373;-88
2023/03/18 09:19:43;;;;;;;;;;;;;;;;;;6175628;23;19951;-88
2023/03/18 09:22:09;;;;;;;;;;;;;;;;;;6202516;23;20348;-88
2023/03/18 09:24:35;;;;;;;;;;;;;;;;;;6177881;23;20221;-88
2023/03/18 09:27:01;;;;;;;;;;;;;;;;;;6176487;23;19930;-88
2023/03/18 09:29:27;;;;;;;;;;;;;;;;;;6204039;23;19927;-88
2023/03/18 09:31:53;;;;;;;;;;;;;;;;;;6176480;23;19916;-88
2023/03/18 09:34:19;;;;;;;;;;;;;;;;;;6176939;23;19924;-88
2023/03/18 09:36:49;;;;;;;;;;;;;;;;;;6177656;23;19927;-88
2023/03/18 09:39:16;;;;;;;;;;;;;;;;;;6204944;23;19920;-88
2023/03/18 09:41:42;;;;;;;;;;;;;;;;;;6200774;23;19920;-88
2023/03/18 09:44:08;;;;;;;;;;;;;;;;;;6177377;23;19922;-88
2023/03/18 09:46:34;;;;;;;;;;;;;;;;;;6177935;23;19920;-89
2023/03/18 09:49:00;;;;;;;;;;;;;;;;;;6201928;23;19927;-88
2023/03/18 09:51:27;;;;;;;;;;;;;;;;;;6178260;23;19920;-88
2023/03/18 09:53:53;;;;;;;;;;;;;;;;;;6176142;23;19920;-88
2023/03/18 09:56:19;;;;;;;;;;;;;;;;;;6203400;23;19920;-88
2023/03/18 09:58:45;;;;;;;;;;;;;;;;;;6201677;23;20029;-88
2023/03/18 10:01:11;;;;;;;;;;;;;;;;;;6176686;23;20332;-87
2023/03/18 10:03:37;;;;;;;;;;;;;;;;;;6201203;23;19998;-88
2023/03/18 10:06:03;;;;;;;;;;;;;;;;;;6178678;23;19947;-88
2023/03/18 10:08:29;;;;;;;;;;;;;;;;;;6178618;23;19927;-88
2023/03/18 10:10:55;;;;;;;;;;;;;;;;;;6199235;23;19927;-88
2023/03/18 10:13:21;;;;;;;;;;;;;;;;;;6177792;23;19920;-88
2023/03/18 10:15:47;;;;;;;;;;;;;;;;;;6175122;23;19928;-88
2023/03/18 10:18:14;;;;;;;;;;;;;;;;;;6201598;23;19923;-89
2023/03/18 10:20:40;;;;;;;;;;;;;;;;;;6176748;23;19920;-88
2023/03/18 10:23:06;;;;;;;;;;;;;;;;;;6203684;23;19928;-89
2023/03/18 10:25:32;;;;;;;;;;;;;;;;;;6203565;23;19992;-88
2023/03/18 10:27:58;;;;;;;;;;;;;;;;;;6176362;23;19998;-87
2023/03/18 10:30:24;;;;;;;;;;;;;;;;;;6179469;23;19916;-88
2023/03/18 10:32:50;;;;;;;;;;;;;;;;;;6200340;23;20215;-88
2023/03/18 10:35:16;;;;;;;;;;;;;;;;;;6176175;23;20018;-88
2023/03/18 10:37:42;;;;;;;;;;;;;;;;;;6198666;23;20256;-88
2023/03/18 10:40:09;;;;;;;;;;;;;;;;;;6201591;23;19927;-88
2023/03/18 10:42:35;;;;;;;;;;;;;;;;;;6176148;23;20308;-88
2023/03/18 10:45:01;;;;;;;;;;;;;;;;;;6174325;23;19958;-88
2023/03/18 10:47:27;;;;;;;;;;;;;;;;;;6178054;23;19924;-87
2023/03/18 10:49:54;;;;;;;;;;;;;;;;;;6174403;23;19919;-87
2023/03/18 10:52:20;;;;;;;;;;;;;;;;;;6177565;23;19924;-88
2023/03/18 10:54:51;;;;;;;;;;;;;;;;;;6173178;23;19940;-87
2023/03/18 10:57:17;;;;;;;;;;;;;;;;;;6204109;23;19924;-88
2023/03/18 10:59:46;;;;;;;;;;;;;;;;;;6199587;23;19923;-87
2023/03/18 11:02:12;;;;;;;;;;;;;;;;;;6179761;23;19926;-87
2023/03/18 11:04:38;;;;;;;;;;;;;;;;;;6204216;23;19955;-88
2023/03/18 11:07:04;;;;;;;;;;;;;;;;;;6207293;23;19919;-88
2023/03/18 11:09:30;;;;;;;;;;;;;;;;;;6204007;23;20264;-87
2023/03/18 11:11:59;;;;;;;;;;;;;;;;;;6207074;23;20029;-86
2023/03/18 11:14:25;;;;;;;;;;;;;;;;;;6208659;23;19927;-83
2023/03/18 11:16:55;;;;;;;;;;;;;;;;;;6207541;23;20309;-87
2023/03/18 11:19:22;;;;;;;;;;;;;;;;;;6208271;23;19920;-86
2023/03/18 11:21:49;;;;;;;;;;;;;;;;;;6234398;23;19965;-86
2023/03/18 11:24:34;;;;;;;;;;;;;;;;;;6211408;23;19919;-86
2023/03/18 11:27:00;;;;;;;;;;;;;;;;;;6234551;23;19915;-86
2023/03/18 11:29:27;;;;;;;;;;;;;;;;;;6237027;23;19999;-85
2023/03/18 11:31:56;;;;;;;;;;;;;;;;;;6209313;23;19973;-86
2023/03/18 11:34:40;;;;;;;;;;;;;;;;;;6211541;23;19963;-86
2023/03/18 11:37:08;;;;;;;;;;;;;;;;;;6188024;23;19991;-86
2023/03/18 11:39:36;;;;;;;;;;;;;;;;;;6209876;23;20034;-85
2023/03/18 11:42:02;;;;;;;;;;;;;;;;;;6208716;23;20347;-86
2023/03/18 11:44:29;;;;;;;;;;;;;;;;;;6185670;23;19927;-85
2023/03/18 11:46:55;;;;;;;;;;;;;;;;;;6208770;23;20193;-82
2023/03/18 11:49:27;;;;;;;;;;;;;;;;;;6208423;23;19923;-85
2023/03/18 11:51:53;;;;;;;;;;;;;;;;;;6184648;23;20192;-85
2023/03/18 11:54:20;;;;;;;;;;;;;;;;;;6210529;23;19920;-86
2023/03/18 11:56:46;;;;;;;;;;;;;;;;;;6206605;23;19947;-81
2023/03/18 11:59:12;;;;;;;;;;;;;;;;;;6185639;23;19916;-81
2023/03/18 12:01:39;;;;;;;;;;;;;;;;;;6208255;23;19924;-82
2023/03/18 12:04:05;;;;;;;;;;;;;;;;;;6206569;23;19953;-81
2023/03/18 12:06:31;;;;;;;;;;;;;;;;;;6203397;23;20403;-82
2023/03/18 12:08:57;;;;;;;;;;;;;;;;;;6203704;23;20215;-82
2023/03/18 12:11:24;;;;;;;;;;;;;;;;;;6205047;23;19920;-82
2023/03/18 12:13:50;;;;;;;;;;;;;;;;;;6176591;23;20252;-82
2023/03/18 12:16:16;;;;;;;;;;;;;;;;;;6179356;23;19950;-82
2023/03/18 12:18:42;;;;;;;;;;;;;;;;;;6202504;23;19947;-82
2023/03/18 12:21:08;;;;;;;;;;;;;;;;;;6204432;23;19927;-82
2023/03/18 12:23:34;;;;;;;;;;;;;;;;;;6203266;23;19927;-82
2023/03/18 12:26:00;;;;;;;;;;;;;;;;;;6202500;23;19923;-81
2023/03/18 12:28:26;;;;;;;;;;;;;;;;;;6176490;23;20123;-82
2023/03/18 12:30:52;;;;;;;;;;;;;;;;;;6202942;23;19981;-82
2023/03/18 12:33:18;;;;;;;;;;;;;;;;;;6205106;23;19990;-82
2023/03/18 12:35:44;;;;;;;;;;;;;;;;;;6201413;23;20352;-81
2023/03/18 12:38:12;;;;;;;;;;;;;;;;;;6204710;23;19924;-82
2023/03/18 12:40:38;;;;;;;;;;;;;;;;;;6200885;23;19951;-82
2023/03/18 12:43:04;;;;;;;;;;;;;;;;;;6179791;23;19927;-81
2023/03/18 12:45:31;;;;;;;;;;;;;;;;;;6175634;23;19950;-82
2023/03/18 12:47:57;;;;;;;;;;;;;;;;;;6202064;23;19989;-81
2023/03/18 12:50:24;;;;;;;;;;;;;;;;;;6204018;23;19924;-81
2023/03/18 12:52:50;;;;;;;;;;;;;;;;;;6203919;23;19920;-81
2023/03/18 12:55:16;;;;;;;;;;;;;;;;;;6178475;23;20046;-82
2023/03/18 12:57:42;;;;;;;;;;;;;;;;;;6176114;23;19951;-82
2023/03/18 13:00:09;;;;;;;;;;;;;;;;;;6179958;23;19923;-82
2023/03/18 13:02:35;;;;;;;;;;;;;;;;;;6179818;23;20418;-81
2023/03/18 13:05:01;;;;;;;;;;;;;;;;;;6207564;23;19923;-81
2023/03/18 13:07:29;;;;;;;;;;;;;;;;;;6183252;23;22904;-81
2023/03/18 13:09:56;;;;;;;;;;;;;;;;;;6204121;23;19915;-81
2023/03/18 13:12:22;;;;;;;;;;;;;;;;;;6210683;23;19994;-81
2023/03/18 13:14:48;;;;;;;;;;;;;;;;;;6182395;23;19959;-81
2023/03/18 13:17:14;;;;;;;;;;;;;;;;;;6184342;23;19923;-83
2023/03/18 13:19:40;;;;;;;;;;;;;;;;;;6205425;23;19927;-83
2023/03/18 13:22:06;;;;;;;;;;;;;;;;;;6210629;23;20250;-82
2023/03/18 13:24:32;;;;;;;;;;;;;;;;;;6209869;23;20036;-83
2023/03/18 13:26:59;;;;;;;;;;;;;;;;;;6208077;23;19920;-81
2023/03/18 13:29:25;;;;;;;;;;;;;;;;;;6183186;23;19919;-82
2023/03/18 13:31:51;;;;;;;;;;;;;;;;;;6208675;23;19915;-81
2023/03/18 13:34:17;;;;;;;;;;;;;;;;;;6183002;23;19923;-82
2023/03/18 13:36:43;;;;;;;;;;;;;;;;;;6204657;23;20252;-82
2023/03/18 13:39:10;;;;;;;;;;;;;;;;;;6235409;23;19920;-83
2023/03/18 13:41:36;;;;;;;;;;;;;;;;;;6234676;23;19927;-82
2023/03/18 13:44:03;;;;;;;;;;;;;;;;;;6182916;23;19992;-82
2023/03/18 13:46:28;;;;;;;;;;;;;;;;;;6182532;23;20034;-82
2023/03/18 13:48:54;;;;;;;;;;;;;;;;;;6179842;23;19923;-83
2023/03/18 13:51:20;;;;;;;;;;;;;;;;;;6208661;23;19951;-83
2023/03/18 13:53:46;;;;;;;;;;;;;;;;;;6208019;23;19919;-83
2023/03/18 13:56:15;;;;;;;;;;;;;;;;;;6234726;23;19924;-82
2023/03/18 13:58:41;;;;;;;;;;;;;;;;;;6203390;23;19920;-87
2023/03/18 14:01:07;;;;;;;;;;;;;;;;;;6186397;23;20226;-88
2023/03/18 14:03:33;;;;;;;;;;;;;;;;;;6186360;23;20319;-87
2023/03/18 14:05:59;;;;;;;;;;;;;;;;;;6208742;23;19998;-88
2023/03/18 14:08:27;;;;;;;;;;;;;;;;;;6187278;23;19916;-87
2023/03/18 14:10:53;;;;;;;;;;;;;;;;;;6209269;23;20238;-88
2023/03/18 14:13:19;;;;;;;;;;;;;;;;;;6237793;23;20244;-87
2023/03/18 14:15:45;;;;;;;;;;;;;;;;;;6181484;23;20002;-87
2023/03/18 14:18:12;;;;;;;;;;;;;;;;;;6186126;23;19916;-87
2023/03/18 14:20:38;;;;;;;;;;;;;;;;;;6180411;23;19919;-88
2023/03/18 14:23:06;;;;;;;;;;;;;;;;;;6185083;23;19920;-83
2023/03/18 14:25:33;;;;;;;;;;;;;;;;;;6233529;23;19919;-83
2023/03/18 14:28:00;;;;;;;;;;;;;;;;;;6204533;23;19920;-83
2023/03/18 14:30:26;;;;;;;;;;;;;;;;;;6232759;23;20341;-87
2023/03/18 14:32:52;;;;;;;;;;;;;;;;;;6234421;23;19923;-87
2023/03/18 14:35:23;;;;;;;;;;;;;;;;;;6235078;23;19919;-87
2023/03/18 14:37:49;;;;;;;;;;;;;;;;;;6206716;23;20304;-87
2023/03/18 14:40:15;;;;;;;;;;;;;;;;;;6207924;23;19919;-89
2023/03/18 14:42:41;;;;;;;;;;;;;;;;;;6232050;23;19954;-87
2023/03/18 14:45:07;;;;;;;;;;;;;;;;;;6210214;23;19923;-88
2023/03/18 14:47:33;;;;;;;;;;;;;;;;;;6183882;23;19922;-89
2023/03/18 14:50:00;;;;;;;;;;;;;;;;;;6182100;23;19951;-87
2023/03/18 14:52:26;;;;;;;;;;;;;;;;;;6208673;23;19952;-87
2023/03/18 14:54:52;;;;;;;;;;;;;;;;;;6182716;23;20249;-87
2023/03/18 14:57:17;;;;;;;;;;;;;;;;;;6236504;23;19915;-88
2023/03/18 14:59:43;;;;;;;;;;;;;;;;;;6229646;23;19919;-89
2023/03/18 15:02:09;;;;;;;;;;;;;;;;;;6205907;23;19994;-88
2023/03/18 15:04:35;;;;;;;;;;;;;;;;;;6203255;23;19924;-89
2023/03/18 15:07:03;;;;;;;;;;;;;;;;;;6229438;23;20363;-88
2023/03/18 15:09:29;;;;;;;;;;;;;;;;;;6230270;23;20011;-88
2023/03/18 15:11:55;;;;;;;;;;;;;;;;;;6229466;23;19946;-89
2023/03/18 15:14:21;;;;;;;;;;;;;;;;;;6206112;23;19919;-90
2023/03/18 15:16:47;;;;;;;;;;;;;;;;;;6201034;23;20287;-87
2023/03/18 15:19:14;;;;;;;;;;;;;;;;;;6181487;23;19920;-87
2023/03/18 15:21:40;;;;;;;;;;;;;;;;;;6179176;23;19919;-87
2023/03/18 15:24:06;;;;;;;;;;;;;;;;;;6183068;23;20325;-87
2023/03/18 15:26:32;;;;;;;;;;;;;;;;;;6181282;23;19997;-86
2023/03/18 15:28:59;;;;;;;;;;;;;;;;;;6231071;23;19941;-86
2023/03/18 15:31:25;;;;;;;;;;;;;;;;;;6181947;23;19926;-87
2023/03/18 15:33:51;;;;;;;;;;;;;;;;;;6203617;23;19919;-87
2023/03/18 15:36:17;;;;;;;;;;;;;;;;;;6182347;23;20368;-86
2023/03/18 15:38:43;;;;;;;;;;;;;;;;;;6203661;23;19916;-86
2023/03/18 15:41:10;;;;;;;;;;;;;;;;;;6205220;23;19920;-86
2023/03/18 15:43:36;;;;;;;;;;;;;;;;;;6181849;23;19920;-86
2023/03/18 15:46:03;;;;;;;;;;;;;;;;;;6206602;23;19922;-86
2023/03/18 15:48:30;;;;;;;;;;;;;;;;;;6205416;23;19960;-86
2023/03/18 15:50:56;;;;;;;;;;;;;;;;;;6200999;23;19926;-87
2023/03/18 15:53:22;;;;;;;;;;;;;;;;;;6177005;23;19919;-86
2023/03/18 15:55:48;;;;;;;;;;;;;;;;;;6176363;23;19919;-88
2023/03/18 15:58:14;;;;;;;;;;;;;;;;;;6180876;23;19994;-88
2023/03/18 16:00:40;;;;;;;;;;;;;;;;;;6179574;23;19920;-87
2023/03/18 16:03:06;;;;;;;;;;;;;;;;;;6125332;23;1870284;-87
2023/03/18 16:05:32;;;;;;;;;;;;;;;;;;6206434;23;19999;-87
2023/03/18 16:07:58;;;;;;;;;;;;;;;;;;6206883;23;19965;-87
2023/03/18 16:10:25;;;;;;;;;;;;;;;;;;6186691;23;19923;-87
2023/03/18 16:12:51;;;;;;;;;;;;;;;;;;6182164;23;19916;-86
2023/03/18 16:15:20;;;;;;;;;;;;;;;;;;6211167;23;19953;-87
2023/03/18 16:17:47;;;;;;;;;;;;;;;;;;6209169;23;19998;-87
2023/03/18 16:20:13;;;;;;;;;;;;;;;;;;6211703;23;19926;-87
2023/03/18 16:22:39;;;;;;;;;;;;;;;;;;6205777;23;19958;-87
2023/03/18 16:25:06;;;;;;;;;;;;;;;;;;6210679;23;20381;-87
2023/03/18 16:27:32;;;;;;;;;;;;;;;;;;6208890;23;19925;-88
2023/03/18 16:29:58;;;;;;;;;;;;;;;;;;6179348;23;19986;-87
2023/03/18 16:32:25;;;;;;;;;;;;;;;;;;6180275;23;20002;-87
2023/03/18 16:34:51;;;;;;;;;;;;;;;;;;6178956;23;19923;-88
2023/03/18 16:37:17;;;;;;;;;;;;;;;;;;6180980;23;19930;-89
2023/03/18 16:39:43;;;;;;;;;;;;;;;;;;6179692;23;20206;-88